createdAt,value
2024-02-24T00:01:54.638Z,2.20
2024-02-24T00:04:21.939Z,2.22
2024-02-24T00:06:49.123Z,2.30
2024-02-24T00:09:16.434Z,2.20
2024-02-24T00:11:43.676Z,2.38
2024-02-24T00:14:10.918Z,2.50
2024-02-24T00:16:38.199Z,2.00
2024-02-24T00:19:06.726Z,2.30
2024-02-24T00:21:33.958Z,2.35
2024-02-24T00:24:01.776Z,2.10
2024-02-24T00:26:28.945Z,2.20
2024-02-24T00:28:56.068Z,2.00
2024-02-24T00:31:23.218Z,2.00
2024-02-24T00:33:50.502Z,2.40
2024-02-24T00:36:17.863Z,3.70
2024-02-24T00:38:45.032Z,2.40
2024-02-24T00:41:12.314Z,2.50
2024-02-24T00:43:39.459Z,2.60
2024-02-24T00:46:08.636Z,2.50
2024-02-24T00:48:35.763Z,2.53
2024-02-24T00:51:02.903Z,2.40
2024-02-24T00:53:30.127Z,2.85
2024-02-24T00:55:57.248Z,2.55
2024-02-24T00:58:24.395Z,3.00
2024-02-24T01:00:51.547Z,2.30
2024-02-24T01:03:18.916Z,2.60
2024-02-24T01:05:46.213Z,2.40
2024-02-24T01:08:14.124Z,2.47
2024-02-24T01:10:41.313Z,2.73
2024-02-24T01:13:08.499Z,2.35
2024-02-24T01:15:35.679Z,2.10
2024-02-24T01:18:03.071Z,2.17
2024-02-24T01:20:30.689Z,2.30
2024-02-24T01:23:01.087Z,2.33
2024-02-24T01:25:28.361Z,2.40
2024-02-24T01:27:55.533Z,2.28
2024-02-24T01:30:23.530Z,2.28
2024-02-24T01:32:50.856Z,2.10
2024-02-24T01:35:18.173Z,2.17
2024-02-24T01:37:45.305Z,2.08
2024-02-24T01:40:12.543Z,2.03
2024-02-24T01:42:39.695Z,2.10
2024-02-24T01:45:07.125Z,2.00
2024-02-24T01:47:34.507Z,2.30
2024-02-24T01:50:01.758Z,2.10
2024-02-24T01:52:28.946Z,2.72
2024-02-24T01:54:57.431Z,3.22
2024-02-24T01:57:26.564Z,2.90
2024-02-24T01:59:55.441Z,2.30
2024-02-24T02:02:23.462Z,2.25
2024-02-24T02:04:50.667Z,2.00
2024-02-24T02:07:18.075Z,2.13
2024-02-24T02:10:01.048Z,2.00
2024-02-24T02:12:29.311Z,2.03
2024-02-24T02:14:56.874Z,2.22
2024-02-24T02:17:24.037Z,2.15
2024-02-24T02:19:51.275Z,1.98
2024-02-24T02:22:19.265Z,2.30
2024-02-24T02:24:46.648Z,1.90
2024-02-24T02:27:14.014Z,1.92
2024-02-24T02:29:41.413Z,2.13
2024-02-24T02:32:09.582Z,1.73
2024-02-24T02:34:37.188Z,2.40
2024-02-24T02:37:06.344Z,1.98
2024-02-24T02:39:33.962Z,2.05
2024-02-24T02:42:01.175Z,2.00
2024-02-24T02:44:28.302Z,2.00
2024-02-24T02:46:55.445Z,2.40
2024-02-24T02:49:22.729Z,1.80
2024-02-24T02:51:50.044Z,2.00
2024-02-24T02:54:17.161Z,1.80
2024-02-24T02:56:44.352Z,2.08
2024-02-24T02:59:11.650Z,1.90
2024-02-24T03:01:38.933Z,1.80
2024-02-24T03:04:06.297Z,2.05
2024-02-24T03:06:33.690Z,1.92
2024-02-24T03:09:01.045Z,1.95
2024-02-24T03:11:28.548Z,1.95
2024-02-24T03:13:56.103Z,2.03
2024-02-24T03:16:23.252Z,2.00
2024-02-24T03:18:51.624Z,2.10
2024-02-24T03:21:28.876Z,1.85
2024-02-24T03:23:59.263Z,1.90
2024-02-24T03:26:26.492Z,2.05
2024-02-24T03:28:53.668Z,2.20
2024-02-24T03:31:20.828Z,2.20
2024-02-24T03:33:48.016Z,2.20
2024-02-24T03:36:15.935Z,2.00
2024-02-24T03:38:43.456Z,2.20
2024-02-24T03:41:11.188Z,1.93
2024-02-24T03:43:39.113Z,2.13
2024-02-24T03:46:06.633Z,2.30
2024-02-24T03:48:34.478Z,1.90
2024-02-24T03:51:01.779Z,1.92
2024-02-24T03:53:32.320Z,2.05
2024-02-24T03:55:59.702Z,1.80
2024-02-24T03:58:26.829Z,1.83
2024-02-24T04:00:55.027Z,2.10
2024-02-24T04:03:22.214Z,1.88
2024-02-24T04:05:49.568Z,2.00
2024-02-24T04:08:16.958Z,2.03
2024-02-24T04:10:47.334Z,2.15
2024-02-24T04:13:14.684Z,1.85
2024-02-24T04:15:51.550Z,1.80
2024-02-24T04:18:19.422Z,2.20
2024-02-24T04:20:47.704Z,1.95
2024-02-24T04:23:15.249Z,2.20
2024-02-24T04:25:42.396Z,2.00
2024-02-24T04:28:09.772Z,1.90
2024-02-24T04:30:38.827Z,2.35
2024-02-24T04:33:06.704Z,1.73
2024-02-24T04:35:34.305Z,2.00
2024-02-24T04:38:07.022Z,2.00
2024-02-24T04:40:37.464Z,1.80
2024-02-24T04:43:04.801Z,1.80
2024-02-24T04:45:31.961Z,1.80
2024-02-24T04:47:59.365Z,1.83
2024-02-24T04:50:26.789Z,1.80
2024-02-24T04:52:54.006Z,1.73
2024-02-24T04:55:21.233Z,1.90
2024-02-24T04:57:48.521Z,1.97
2024-02-24T05:00:15.714Z,1.88
2024-02-24T05:02:42.998Z,1.80
2024-02-24T05:05:12.411Z,1.92
2024-02-24T05:07:39.670Z,2.10
2024-02-24T05:10:08.002Z,1.73
2024-02-24T05:12:35.139Z,1.90
2024-02-24T05:15:02.283Z,2.20
2024-02-24T05:17:29.511Z,1.80
2024-02-24T05:19:56.751Z,1.60
2024-02-24T05:22:23.996Z,1.60
2024-02-24T05:24:52.598Z,1.70
2024-02-24T05:27:21.281Z,1.77
2024-02-24T05:29:49.073Z,1.67
2024-02-24T05:32:17.975Z,1.65
2024-02-24T05:34:45.850Z,1.77
2024-02-24T05:37:13.076Z,1.67
2024-02-24T05:39:40.301Z,1.70
2024-02-24T05:42:07.760Z,1.70
2024-02-24T05:44:35.332Z,1.73
2024-02-24T05:47:02.693Z,2.15
2024-02-24T05:49:29.895Z,1.90
2024-02-24T05:51:57.117Z,1.70
2024-02-24T05:54:24.493Z,1.77
2024-02-24T05:56:51.992Z,1.63
2024-02-24T05:59:19.474Z,1.90
2024-02-24T06:01:47.130Z,1.83
2024-02-24T06:04:14.270Z,1.80
2024-02-24T06:06:41.833Z,1.75
2024-02-24T06:09:09.066Z,1.80
2024-02-24T06:11:36.384Z,1.85
2024-02-24T06:14:03.526Z,1.90
2024-02-24T06:16:30.645Z,1.70
2024-02-24T06:18:57.941Z,1.90
2024-02-24T06:21:25.238Z,1.90
2024-02-24T06:23:52.416Z,1.90
2024-02-24T06:26:19.651Z,1.73
2024-02-24T06:28:46.784Z,1.83
2024-02-24T06:31:19.170Z,2.00
2024-02-24T06:33:46.600Z,1.65
2024-02-24T06:36:13.791Z,1.80
2024-02-24T06:38:41.171Z,2.05
2024-02-24T06:41:08.333Z,2.27
2024-02-24T06:43:35.590Z,2.20
2024-02-24T06:46:02.700Z,2.10
2024-02-24T06:48:30.100Z,1.90
2024-02-24T06:50:57.538Z,1.70
2024-02-24T06:53:24.673Z,1.75
2024-02-24T06:55:52.048Z,2.00
2024-02-24T06:58:19.387Z,2.03
2024-02-24T07:00:46.547Z,1.80
2024-02-24T07:03:13.819Z,1.92
2024-02-24T07:05:41.008Z,1.90
2024-02-24T07:08:08.229Z,1.80
2024-02-24T07:10:35.493Z,2.30
2024-02-24T07:13:02.627Z,2.17
2024-02-24T07:15:29.834Z,1.90
2024-02-24T07:17:57.141Z,2.10
2024-02-24T07:20:24.383Z,1.90
2024-02-24T07:22:51.579Z,2.13
2024-02-24T07:25:18.777Z,1.95
2024-02-24T07:27:45.910Z,2.13
2024-02-24T07:30:13.975Z,2.00
2024-02-24T07:32:43.596Z,1.83
2024-02-24T07:35:11.173Z,1.90
2024-02-24T07:37:38.366Z,1.85
2024-02-24T07:40:05.734Z,1.55
2024-02-24T07:42:32.929Z,1.80
2024-02-24T07:45:00.486Z,2.00
2024-02-24T07:47:27.970Z,1.63
2024-02-24T07:49:55.263Z,1.83
2024-02-24T07:52:22.372Z,1.67
2024-02-24T07:54:49.536Z,1.88
2024-02-24T07:57:16.772Z,1.70
2024-02-24T07:59:43.996Z,1.90
2024-02-24T08:02:11.267Z,2.20
2024-02-24T08:04:38.494Z,1.75
2024-02-24T08:07:05.708Z,2.33
2024-02-24T08:09:32.965Z,2.07
2024-02-24T08:12:01.004Z,2.00
2024-02-24T08:14:28.357Z,1.85
2024-02-24T08:16:55.527Z,1.80
2024-02-24T08:19:22.787Z,1.77
2024-02-24T08:21:50.709Z,2.03
2024-02-24T08:24:17.987Z,1.92
2024-02-24T08:26:46.466Z,1.77
2024-02-24T08:29:13.782Z,2.28
2024-02-24T08:31:41.256Z,1.80
2024-02-24T08:34:08.927Z,2.17
2024-02-24T08:36:36.725Z,2.13
2024-02-24T08:39:04.154Z,2.10
2024-02-24T08:41:38.210Z,1.90
2024-02-24T08:44:06.066Z,1.60
2024-02-24T08:46:33.561Z,1.83
2024-02-24T08:49:01.091Z,1.70
2024-02-24T08:51:28.745Z,1.83
2024-02-24T08:53:56.504Z,2.03
2024-02-24T08:56:24.228Z,1.90
2024-02-24T08:58:51.434Z,2.15
2024-02-24T09:01:22.225Z,1.58
2024-02-24T09:03:49.584Z,2.00
2024-02-24T09:06:17.397Z,1.97
2024-02-24T09:08:44.822Z,1.87
2024-02-24T09:11:12.320Z,2.00
2024-02-24T09:13:39.744Z,1.50
2024-02-24T09:16:07.050Z,1.98
2024-02-24T09:18:34.309Z,1.90
2024-02-24T09:21:01.624Z,1.88
2024-02-24T09:23:28.953Z,1.80
2024-02-24T09:25:56.137Z,1.95
2024-02-24T09:28:23.254Z,1.88
2024-02-24T09:30:50.394Z,2.00
2024-02-24T09:33:17.849Z,1.70
2024-02-24T09:35:45.099Z,2.30
2024-02-24T09:38:12.369Z,2.27
2024-02-24T09:40:39.610Z,2.35
2024-02-24T09:43:07.780Z,1.83
2024-02-24T09:45:36.495Z,1.92
2024-02-24T09:48:04.206Z,1.92
2024-02-24T09:50:32.015Z,1.95
2024-02-24T09:52:59.345Z,1.92
2024-02-24T09:55:28.572Z,1.92
2024-02-24T09:57:57.137Z,2.03
2024-02-24T10:00:24.702Z,1.60
2024-02-24T10:02:52.016Z,1.70
2024-02-24T10:05:19.709Z,2.20
2024-02-24T10:07:47.634Z,1.77
2024-02-24T10:10:17.256Z,1.73
2024-02-24T10:12:57.420Z,2.60
2024-02-24T10:15:25.371Z,2.95
2024-02-24T10:17:55.806Z,2.70
2024-02-24T10:20:23.378Z,3.70
2024-02-24T10:22:50.719Z,2.10
2024-02-24T10:25:17.882Z,4.38
2024-02-24T10:27:45.504Z,2.17
2024-02-24T10:30:12.754Z,2.10
2024-02-24T10:32:41.050Z,2.50
2024-02-24T10:35:09.680Z,2.15
2024-02-24T10:37:56.243Z,1.80
2024-02-24T10:40:24.117Z,2.20
2024-02-24T10:42:51.492Z,1.63
2024-02-24T10:45:18.961Z,1.80
2024-02-24T10:47:47.428Z,1.75
2024-02-24T10:50:17.226Z,1.70
2024-02-24T10:52:44.850Z,1.63
2024-02-24T10:55:12.548Z,1.60
2024-02-24T10:57:40.293Z,1.98
2024-02-24T11:00:25.909Z,1.90
2024-02-24T11:02:53.382Z,1.90
2024-02-24T11:05:20.564Z,2.00
2024-02-24T11:07:47.789Z,2.15
2024-02-24T11:10:16.615Z,2.03
2024-02-24T11:12:43.760Z,1.73
2024-02-24T11:15:18.648Z,1.30
2024-02-24T11:17:45.813Z,1.07
2024-02-24T11:20:13.428Z,1.00
2024-02-24T11:22:40.530Z,1.00
2024-02-24T11:25:08.024Z,0.95
2024-02-24T11:27:37.432Z,1.00
2024-02-24T11:30:23.291Z,1.00
2024-02-24T11:32:53.068Z,1.30
2024-02-24T11:35:20.412Z,1.08
2024-02-24T11:37:48.883Z,1.23
2024-02-24T11:40:16.075Z,1.48
2024-02-24T11:42:44.219Z,1.30
2024-02-24T11:45:12.145Z,1.50
2024-02-24T11:47:41.047Z,1.67
2024-02-24T11:50:08.395Z,1.75
2024-02-24T11:52:35.579Z,1.60
2024-02-24T11:55:03.064Z,1.75
2024-02-24T11:57:30.443Z,1.80
2024-02-24T11:59:58.127Z,1.80
2024-02-24T12:02:25.588Z,1.80
2024-02-24T12:04:54.751Z,2.00
2024-02-24T12:07:24.010Z,1.90
2024-02-24T12:09:52.781Z,2.00
2024-02-24T12:12:20.231Z,2.10
2024-02-24T12:14:47.946Z,2.20
2024-02-24T12:17:15.285Z,2.25
2024-02-24T12:19:42.670Z,2.60
2024-02-24T12:22:10.645Z,2.25
2024-02-24T12:24:39.429Z,2.00
2024-02-24T12:27:10.022Z,2.17
2024-02-24T12:29:37.250Z,2.22
2024-02-24T12:32:04.653Z,2.25
2024-02-24T12:34:33.785Z,2.38
2024-02-24T12:37:11.556Z,2.00
2024-02-24T12:39:42.532Z,2.40
2024-02-24T12:44:48.099Z,1.83
2024-02-24T12:47:16.620Z,1.83
2024-02-24T12:49:44.695Z,1.70
2024-02-24T12:52:13.226Z,1.80
2024-02-24T12:54:40.469Z,1.70
2024-02-24T12:57:09.831Z,1.58
2024-02-24T12:59:37.020Z,1.70
2024-02-24T13:02:04.342Z,2.20
2024-02-24T13:04:31.502Z,1.48
2024-02-24T13:07:00.074Z,1.42
2024-02-24T13:09:27.375Z,1.92
2024-02-24T13:11:56.921Z,1.60
2024-02-24T13:14:25.278Z,1.20
2024-02-24T13:16:52.554Z,1.40
2024-02-24T13:19:19.680Z,1.67
2024-02-24T13:21:46.842Z,1.40
2024-02-24T13:24:13.968Z,1.52
2024-02-24T13:26:41.143Z,1.55
2024-02-24T13:29:08.326Z,1.70
2024-02-24T13:31:35.472Z,1.50
2024-02-24T13:34:02.729Z,1.60
2024-02-24T13:36:29.869Z,1.27
2024-02-24T13:38:57.232Z,1.50
2024-02-24T13:41:24.517Z,1.10
2024-02-24T13:43:51.707Z,1.23
2024-02-24T13:46:19.027Z,1.23
2024-02-24T13:48:46.300Z,1.15
2024-02-24T13:51:13.673Z,1.07
2024-02-24T13:53:41.231Z,1.25
2024-02-24T13:56:08.626Z,1.13
2024-02-24T13:58:38.160Z,1.20
2024-02-24T14:01:05.306Z,1.10
2024-02-24T14:03:32.525Z,1.20
2024-02-24T14:06:00.341Z,1.10
2024-02-24T14:08:28.031Z,1.20
2024-02-24T14:10:55.633Z,1.63
2024-02-24T14:13:22.855Z,1.00
2024-02-24T14:15:50.402Z,1.70
2024-02-24T14:18:17.963Z,1.10
2024-02-24T14:20:45.974Z,1.40
2024-02-24T14:23:13.216Z,2.27
2024-02-24T14:25:41.375Z,1.20
2024-02-24T14:28:11.914Z,1.52
2024-02-24T14:30:40.158Z,1.58
2024-02-24T14:33:08.168Z,1.60
2024-02-24T14:35:39.375Z,1.20
2024-02-24T14:38:07.100Z,1.20
2024-02-24T14:40:34.210Z,0.90
2024-02-24T14:43:04.172Z,1.13
2024-02-24T14:45:31.690Z,1.27
2024-02-24T14:48:04.285Z,1.15
2024-02-24T14:50:33.127Z,1.10
2024-02-24T14:53:00.613Z,0.90
2024-02-24T14:55:27.735Z,0.98
2024-02-24T14:57:55.101Z,1.10
2024-02-24T15:00:24.968Z,1.30
2024-02-24T15:03:04.488Z,1.38
2024-02-24T15:05:38.484Z,1.30
2024-02-24T15:08:05.847Z,1.10
2024-02-24T15:10:33.245Z,0.95
2024-02-24T15:13:00.367Z,1.15
2024-02-24T15:15:27.484Z,1.02
2024-02-24T15:17:56.306Z,1.17
2024-02-24T15:20:23.546Z,1.20
2024-02-24T15:22:55.190Z,3.17
2024-02-24T15:25:25.222Z,1.17
2024-02-24T15:27:53.242Z,1.20
2024-02-24T15:30:21.845Z,0.90
2024-02-24T15:32:54.294Z,1.13
2024-02-24T15:35:21.569Z,1.20
2024-02-24T15:37:48.745Z,1.00
2024-02-24T15:40:15.921Z,1.10
2024-02-24T15:42:43.102Z,0.90
2024-02-24T15:45:10.387Z,0.80
2024-02-24T15:47:38.536Z,1.00
2024-02-24T15:50:05.900Z,0.70
2024-02-24T15:52:33.101Z,0.85
2024-02-24T15:55:00.222Z,1.20
2024-02-24T15:57:27.391Z,1.85
2024-02-24T15:59:54.660Z,3.28
2024-02-24T16:02:21.784Z,3.53
2024-02-24T16:04:49.251Z,1.50
2024-02-24T16:07:16.496Z,0.90
2024-02-24T16:09:43.631Z,0.90
2024-02-24T16:12:10.803Z,0.98
2024-02-24T16:14:37.925Z,0.80
2024-02-24T16:17:05.274Z,1.03
2024-02-24T16:19:32.573Z,1.00
2024-02-24T16:21:59.734Z,0.90
2024-02-24T16:24:29.361Z,1.23
2024-02-24T16:26:58.103Z,1.40
2024-02-24T16:29:25.844Z,1.20
2024-02-24T16:31:52.997Z,1.40
2024-02-24T16:34:20.232Z,1.25
2024-02-24T16:36:47.477Z,1.10
2024-02-24T16:39:14.608Z,1.00
2024-02-24T16:41:41.984Z,1.13
2024-02-24T16:44:10.375Z,1.10
2024-02-24T16:46:42.274Z,1.27
2024-02-24T16:49:09.751Z,1.40
2024-02-24T16:51:37.057Z,1.00
2024-02-24T16:54:04.317Z,1.20
2024-02-24T16:56:32.718Z,1.65
2024-02-24T16:59:00.801Z,1.58
2024-02-24T17:01:28.497Z,1.73
2024-02-24T17:03:55.777Z,1.83
2024-02-24T17:06:23.311Z,2.13
2024-02-24T17:08:50.601Z,1.77
2024-02-24T17:11:21.159Z,2.60
2024-02-24T17:13:48.561Z,2.80
2024-02-24T17:16:15.848Z,10.23
2024-02-24T17:18:43.111Z,2.88
2024-02-24T17:21:10.787Z,2.00
2024-02-24T17:23:39.631Z,2.45
2024-02-24T17:26:06.921Z,2.00
2024-02-24T17:28:34.299Z,2.55
2024-02-24T17:31:02.898Z,1.92
2024-02-24T17:33:30.124Z,4.80
2024-02-24T17:35:57.432Z,8.40
2024-02-24T17:38:26.859Z,7.32
2024-02-24T17:40:56.601Z,2.45
2024-02-24T17:43:24.900Z,1.73
2024-02-24T17:45:51.990Z,1.83
2024-02-24T17:48:22.566Z,1.90
2024-02-24T17:50:50.306Z,1.92
2024-02-24T17:53:19.042Z,1.90
2024-02-24T17:55:46.469Z,1.83
2024-02-24T17:58:13.773Z,2.15
2024-02-24T18:00:41.303Z,1.90
2024-02-24T18:03:08.516Z,1.88
2024-02-24T18:05:35.794Z,2.20
2024-02-24T18:08:02.954Z,2.28
2024-02-24T18:10:31.392Z,2.22
2024-02-24T18:12:58.559Z,2.50
2024-02-24T18:15:25.863Z,2.28
2024-02-24T18:17:53.146Z,2.60
2024-02-24T18:20:20.432Z,2.55
2024-02-24T18:22:47.509Z,2.27
2024-02-24T18:25:14.782Z,2.15
2024-02-24T18:27:41.937Z,2.30
2024-02-24T18:30:09.355Z,3.63
2024-02-24T18:32:37.106Z,2.70
2024-02-24T18:35:04.327Z,2.15
2024-02-24T18:37:31.667Z,2.25
2024-02-24T18:40:02.943Z,2.45
2024-02-24T18:42:30.034Z,2.17
2024-02-24T18:44:57.249Z,2.40
2024-02-24T18:47:24.506Z,2.67
2024-02-24T18:49:52.536Z,2.60
2024-02-24T18:52:19.816Z,2.63
2024-02-24T18:54:48.573Z,2.95
2024-02-24T18:57:15.877Z,2.63
2024-02-24T18:59:43.790Z,3.20
2024-02-24T19:02:13.452Z,3.00
2024-02-24T19:04:40.897Z,2.80
2024-02-24T19:07:12.125Z,2.60
2024-02-24T19:09:42.534Z,3.10
2024-02-24T19:12:10.285Z,3.45
2024-02-24T19:14:48.159Z,3.33
2024-02-24T19:17:19.453Z,2.83
2024-02-24T19:19:49.633Z,3.10
2024-02-24T19:22:16.976Z,2.97
2024-02-24T19:24:44.107Z,3.60
2024-02-24T19:27:11.261Z,3.70
2024-02-24T19:29:44.226Z,3.30
2024-02-24T19:32:12.005Z,2.97
2024-02-24T19:34:39.377Z,3.78
2024-02-24T19:37:09.967Z,3.05
2024-02-24T19:39:37.456Z,2.95
2024-02-24T19:42:05.093Z,3.17
2024-02-24T19:44:32.399Z,3.10
2024-02-24T19:46:59.661Z,3.10
2024-02-24T19:49:26.893Z,3.35
2024-02-24T19:51:54.161Z,3.40
2024-02-24T19:54:21.585Z,3.50
2024-02-24T19:56:48.757Z,3.60
2024-02-24T19:59:15.877Z,3.37
2024-02-24T20:01:43.013Z,3.20
2024-02-24T20:04:11.072Z,3.10
2024-02-24T20:06:38.860Z,3.30
2024-02-24T20:09:06.075Z,3.15
2024-02-24T20:11:33.877Z,3.55
2024-02-24T20:14:01.206Z,3.40
2024-02-24T20:16:28.309Z,3.25
2024-02-24T20:18:55.591Z,3.60
2024-02-24T20:21:22.864Z,2.90
2024-02-24T20:23:50.055Z,2.95
2024-02-24T20:26:17.237Z,3.13
2024-02-24T20:28:45.506Z,3.50
2024-02-24T20:31:14.436Z,2.85
2024-02-24T20:33:47.334Z,2.80
2024-02-24T20:36:20.282Z,3.20
2024-02-24T20:38:52.139Z,2.90
2024-02-24T20:41:19.342Z,3.20
2024-02-24T20:43:50.724Z,3.10
2024-02-24T20:46:17.955Z,3.08
2024-02-24T20:48:45.970Z,3.45
2024-02-24T20:51:13.181Z,3.00
2024-02-24T20:53:40.345Z,3.03
2024-02-24T20:56:07.800Z,3.08
2024-02-24T20:58:37.271Z,3.05
2024-02-24T21:01:04.633Z,3.17
2024-02-24T21:03:31.872Z,3.13
2024-02-24T21:05:59.213Z,3.10
2024-02-24T21:08:26.487Z,2.88
2024-02-24T21:10:53.727Z,2.80
2024-02-24T21:13:20.947Z,2.50
2024-02-24T21:15:48.055Z,2.80
2024-02-24T21:18:15.313Z,2.72
2024-02-24T21:20:42.624Z,2.90
2024-02-24T21:23:09.855Z,2.83
2024-02-24T21:25:36.967Z,2.70
2024-02-24T21:28:07.558Z,2.47
2024-02-24T21:30:34.973Z,2.30
2024-02-24T21:33:02.394Z,2.35
2024-02-24T21:35:32.981Z,2.40
2024-02-24T21:38:01.083Z,2.35
2024-02-24T21:40:28.272Z,2.80
2024-02-24T21:42:55.391Z,2.40
2024-02-24T21:45:22.517Z,2.20
2024-02-24T21:47:49.821Z,2.40
2024-02-24T21:50:17.173Z,2.30
2024-02-24T21:52:47.408Z,2.65
2024-02-24T21:55:14.566Z,3.22
2024-02-24T21:57:43.096Z,2.70
2024-02-24T22:00:16.389Z,2.35
2024-02-24T22:02:44.115Z,2.58
2024-02-24T22:05:11.702Z,2.65
2024-02-24T22:07:38.801Z,2.40
2024-02-24T22:10:06.186Z,2.58
2024-02-24T22:12:33.423Z,2.75
2024-02-24T22:15:00.665Z,2.80
2024-02-24T22:17:27.926Z,2.70
2024-02-24T22:19:55.163Z,2.30
2024-02-24T22:22:22.365Z,2.58
2024-02-24T22:24:49.507Z,2.42
2024-02-24T22:27:16.885Z,2.38
2024-02-24T22:29:44.261Z,2.33
2024-02-24T22:32:11.483Z,2.45
2024-02-24T22:34:38.674Z,2.50
2024-02-24T22:37:05.888Z,2.70
2024-02-24T22:39:32.973Z,2.33
2024-02-24T22:42:00.446Z,2.47
2024-02-24T22:44:32.005Z,2.30
2024-02-24T22:46:59.274Z,2.15
2024-02-24T22:52:02.213Z,2.50
2024-02-24T22:54:29.304Z,2.70
2024-02-24T22:56:56.463Z,2.30
2024-02-24T22:59:24.057Z,2.30
2024-02-24T23:01:51.146Z,2.38
2024-02-24T23:04:18.303Z,2.67
2024-02-24T23:06:45.588Z,2.60
2024-02-24T23:09:13.369Z,2.75
2024-02-24T23:11:41.045Z,2.90
2024-02-24T23:14:09.410Z,2.70
2024-02-24T23:16:36.804Z,2.73
2024-02-24T23:19:04.602Z,2.50
2024-02-24T23:21:36.134Z,2.60
2024-02-24T23:24:04.997Z,2.60
2024-02-24T23:26:32.489Z,2.57
2024-02-24T23:29:02.661Z,2.45
2024-02-24T23:31:30.300Z,3.00
2024-02-24T23:33:57.611Z,2.70
2024-02-24T23:36:25.059Z,2.63
2024-02-24T23:38:52.203Z,2.63
2024-02-24T23:41:19.728Z,2.92
2024-02-24T23:43:47.123Z,2.40
2024-02-24T23:46:14.498Z,2.53
2024-02-24T23:48:43.189Z,2.30
2024-02-24T23:51:10.444Z,2.30
2024-02-24T23:53:40.658Z,2.38
2024-02-24T23:56:08.236Z,2.50
2024-02-24T23:58:35.336Z,2.70
